• Join FlightAware (Why Join?)
  • Login
  • US Flag 
Rudolph Flight #1: Scheduled 
08:05PM EST


 

Airport Tracker/Info


-or-


 

Live Flight TrackerFlight Track Log ✈ SWA1096 ✈ 25-Apr-2013 ✈ KBWI - KMHT

Flight Track Log - Related Links

Times and Time Zones

All times are in EDT time to prevent confusion due to time zone crossing. See the SWA1096 flight status page for this flight to view local times or setup timezone preferences in your user account.

Time Position Orientation Groundspeed Altitude Reporting Facility
EDT Latitude Longitude Course Direction KTS MPH feet Rate Location/Type
03:40PM 39.1833 -76.7167 218° Southwest 161 185 1,700  Level Potomac TRACON
03:41PM 39.1500 -76.7500 218° Southwest 225 259 4,100 2,220 Climbing Potomac TRACON
03:42PM 39.1333 -76.6833 108° East 279 321 6,200 2,760 Climbing Potomac TRACON
03:45PM 39.1400 -76.4078 88° East 326 375 13,600 2,880 Climbing Washington Center
03:46PM 39.1469 -76.2661 86° East 354 407 16,200 2,640 Climbing Washington Center
03:47PM 39.1622 -76.1244 82° East 386 444 18,900 1,380 Climbing Washington Center
03:48PM 39.1817 -75.9719 81° East 413 475 19,000 900 Climbing Washington Center
03:49PM 39.2236 -75.8408 68° East 450 518 20,800 1,980 Climbing Washington Center
03:50PM 39.3322 -75.7017 45° Northeast 449 517 23,000 1,800 Climbing Washington Center
03:51PM 39.4219 -75.5836 45° Northeast 454 522 24,500 1,620 Climbing Washington Center
03:52PM 39.5072 -75.4758 44° Northeast 459 528 26,300 1,740 Climbing Washington Center
03:53PM 39.6050 -75.3464 46° Northeast 479 551 28,000 1,680 Climbing Washington Center
03:54PM 39.7642 -75.1242 47° Northeast 517 595 30,800 1,860 Climbing New York Center
03:55PM 39.8611 -74.9817 48° Northeast 529 609 33,000 1,980 Climbing New York Center
03:56PM 39.9600 -74.8414 47° Northeast 524 603 34,800 960 Climbing New York Center
03:57PM 40.0672 -74.6903 47° Northeast 519 597 35,000 60 Climbing New York Center
03:58PM 40.1706 -74.5875 37° Northeast 514 592 35,000  Level New York Center
03:59PM 40.3075 -74.5433 14° North 502 578 35,000  Level New York Center
04:00PM 40.4444 -74.5017 13° North 497 572 35,000  Level New York Center
04:01PM 40.5789 -74.4625 12° North 497 572 35,000  Level New York Center
04:04PM 40.8853 -74.3756 12° North 509 586 35,000  Level Boston Center
04:05PM 41.0097 -74.2939 26° Northeast 504 580 35,000  Level Boston Center
04:06PM 41.1078 -74.1481 48° Northeast 504 580 35,000  Level Boston Center
04:07PM 41.2058 -74.0072 47° Northeast 504 580 35,000  Level Boston Center
04:08PM 41.3217 -73.9050 34° Northeast 492 566 35,000 -480 Level Boston Center
04:09PM 41.4575 -73.8942 North 467 537 34,100 -900 Descending Boston Center
04:10PM 41.5950 -73.8836 North 486 559 33,200 -960 Descending Boston Center
04:11PM 41.7347 -73.8756 North 486 559 32,200 -1,020 Descending Boston Center
04:12PM 41.8850 -73.8622 North 491 565 31,200 -960 Descending Boston Center
04:13PM 41.9889 -73.7278 44° Northeast 472 543 30,300 -1,800 Descending Boston Center
04:14PM 42.0697 -73.5728 55° Northeast 500 575 27,600 -1,680 Descending Boston Center
04:15PM 42.1650 -73.4147 51° Northeast 511 588 27,000 -600 Descending Boston Center
04:16PM 42.2514 -73.2647 52° Northeast 506 582 26,500 -1,440 Descending Boston Center
04:17PM 42.3358 -73.1169 52° Northeast 501 577 23,900 -2,460 Descending Boston Center
04:18PM 42.4328 -72.9353 54° Northeast 501 577 21,200 -1,500 Descending Boston Center
04:19PM 42.5125 -72.7950 52° Northeast 488 562 21,000 -600 Descending Boston Center
04:20PM 42.5878 -72.6572 53° Northeast 464 534 20,100 -1,080 Descending Boston Center
04:21PM 42.6567 -72.5444 50° Northeast 454 522 18,900 -1,740 Descending Boston Center
04:22PM 42.7256 -72.4033 56° Northeast 442 509 16,700 -2,580 Descending Boston Center
04:23PM 42.7586 -72.2364 75° East 415 478 13,800 -2,580 Descending Boston Center
04:24PM 42.7856 -72.1033 75° East 403 464 11,600 -1,980 Descending Boston Center
04:25PM 42.8161 -71.9506 75° East 385 443 9,900 -1,080 Descending Boston Center
04:26PM 42.8281 -71.8400 82° East 345 397 9,500 -900 Descending Boston Center
04:27PM 42.8400 -71.7153 83° East 306 352 8,100 -1,260 Descending Boston Center
04:28PM 42.8308 -71.6219 98° East 282 325 7,000 -1,200 Descending Boston Center
04:29PM 42.7864 -71.5264 122° Southeast 269 310 5,700 -1,200 Descending Boston Center
04:30PM 42.7483 -71.4561 126° Southeast 262 302 4,700 -1,140 Descending Boston Center
04:31PM 42.7539 -71.3656 85° East 221 254 3,500 -900 Descending Boston Center
04:32PM 42.7994 -71.3450 18° North 140 161 3,000 -840 Descending Boston Center
04:33PM 42.8478 -71.3839 329° Northwest 147 169 1,900 -900 Descending Boston Center
04:34PM 42.8833 -71.4058 336° Northwest 158 182 1,200 -720 Descending Boston Center
04:35PM 42.9169 -71.4222 340° North 146 168 400 3,540 Descending Boston Center
04:36PM 42.9631 -71.4500 336° Northwest 146 168 9,000 4,260 Climbing Boston Center
04:37PM 43.0006 -71.4719 337° Northwest 146 168 9,000  Level Boston Center
04:39PM 42.9328 -71.4358 164° South  Level Estimated
04:46PM 42.9328 -71.4358 164° South  Level Estimated
04:47PM 42.9328 -71.4358 164° South  Level Estimated
04:48PM 42.9328 -71.4358 164° South  Level Estimated
04:49PM 42.9328 -71.4358 164° South  Level Estimated
04:50PM 42.9328 -71.4358 164° South  Level Estimated
04:51PM 42.9328 -71.4358 164° South  Level Estimated
04:52PM 42.9328 -71.4358 164° South  Level Estimated
04:53PM 42.9328 -71.4358 164° South  Level Estimated